sensor_id;sensor_type;location;lat;lon;timestamp;P1;durP1;ratioP1;P2;durP2;ratioP2
20365;SDS011;10341;49.894;8.822;2022-11-15T00:00:44;6.53;;;2.97;;
20365;SDS011;10341;49.894;8.822;2022-11-15T00:06:22;5.10;;;3.08;;
20365;SDS011;10341;49.894;8.822;2022-11-15T00:12:00;4.32;;;2.72;;
20365;SDS011;10341;49.894;8.822;2022-11-15T00:17:38;5.20;;;2.85;;
20365;SDS011;10341;49.894;8.822;2022-11-15T00:23:16;4.75;;;3.05;;
20365;SDS011;10341;49.894;8.822;2022-11-15T00:28:54;4.75;;;3.10;;
20365;SDS011;10341;49.894;8.822;2022-11-15T00:34:32;6.57;;;3.05;;
20365;SDS011;10341;49.894;8.822;2022-11-15T00:40:11;4.75;;;3.33;;
20365;SDS011;10341;49.894;8.822;2022-11-15T00:45:50;5.93;;;3.40;;
20365;SDS011;10341;49.894;8.822;2022-11-15T00:51:28;4.50;;;2.88;;
20365;SDS011;10341;49.894;8.822;2022-11-15T00:57:06;5.00;;;3.05;;
20365;SDS011;10341;49.894;8.822;2022-11-15T01:02:44;6.10;;;2.90;;
20365;SDS011;10341;49.894;8.822;2022-11-15T01:08:22;4.50;;;3.20;;
20365;SDS011;10341;49.894;8.822;2022-11-15T01:14:00;7.25;;;3.30;;
20365;SDS011;10341;49.894;8.822;2022-11-15T01:19:38;7.07;;;3.33;;
20365;SDS011;10341;49.894;8.822;2022-11-15T01:25:16;5.05;;;3.25;;
20365;SDS011;10341;49.894;8.822;2022-11-15T01:30:56;4.47;;;3.05;;
20365;SDS011;10341;49.894;8.822;2022-11-15T01:36:36;7.50;;;3.40;;
20365;SDS011;10341;49.894;8.822;2022-11-15T01:42:14;5.70;;;3.40;;
20365;SDS011;10341;49.894;8.822;2022-11-15T01:47:52;5.75;;;3.35;;
20365;SDS011;10341;49.894;8.822;2022-11-15T01:53:32;5.10;;;2.80;;
20365;SDS011;10341;49.894;8.822;2022-11-15T01:59:13;4.57;;;3.15;;
20365;SDS011;10341;49.894;8.822;2022-11-15T02:04:52;5.80;;;3.28;;
20365;SDS011;10341;49.894;8.822;2022-11-15T02:10:30;5.82;;;3.60;;
20365;SDS011;10341;49.894;8.822;2022-11-15T02:34:35;5.22;;;3.20;;
20365;SDS011;10341;49.894;8.822;2022-11-15T02:46:18;5.47;;;3.00;;
20365;SDS011;10341;49.894;8.822;2022-11-15T02:52:29;5.97;;;3.30;;
20365;SDS011;10341;49.894;8.822;2022-11-15T03:04:09;8.07;;;3.55;;
20365;SDS011;10341;49.894;8.822;2022-11-15T03:10:06;6.28;;;3.22;;
20365;SDS011;10341;49.894;8.822;2022-11-15T03:21:44;5.97;;;3.47;;
20365;SDS011;10341;49.894;8.822;2022-11-15T03:27:25;5.90;;;3.60;;
20365;SDS011;10341;49.894;8.822;2022-11-15T03:33:10;6.45;;;3.00;;
20365;SDS011;10341;49.894;8.822;2022-11-15T03:38:49;4.53;;;2.83;;
20365;SDS011;10341;49.894;8.822;2022-11-15T03:50:20;5.05;;;2.88;;
20365;SDS011;10341;49.894;8.822;2022-11-15T03:56:00;5.93;;;2.83;;
20365;SDS011;10341;49.894;8.822;2022-11-15T04:01:38;5.75;;;3.03;;
20365;SDS011;10341;49.894;8.822;2022-11-15T04:07:15;4.53;;;2.83;;
20365;SDS011;10341;49.894;8.822;2022-11-15T04:12:54;7.75;;;3.28;;
20365;SDS011;10341;49.894;8.822;2022-11-15T04:18:31;5.32;;;3.20;;
20365;SDS011;10341;49.894;8.822;2022-11-15T04:24:09;4.65;;;2.90;;
20365;SDS011;10341;49.894;8.822;2022-11-15T04:29:51;5.57;;;3.30;;
20365;SDS011;10341;49.894;8.822;2022-11-15T04:35:28;4.18;;;3.00;;
20365;SDS011;10341;49.894;8.822;2022-11-15T04:41:07;5.18;;;2.90;;
20365;SDS011;10341;49.894;8.822;2022-11-15T04:46:45;6.07;;;3.30;;
20365;SDS011;10341;49.894;8.822;2022-11-15T04:52:22;5.80;;;3.28;;
20365;SDS011;10341;49.894;8.822;2022-11-15T04:58:01;7.22;;;4.25;;
20365;SDS011;10341;49.894;8.822;2022-11-15T05:03:40;5.32;;;3.50;;
20365;SDS011;10341;49.894;8.822;2022-11-15T05:09:40;4.50;;;2.97;;
20365;SDS011;10341;49.894;8.822;2022-11-15T05:15:18;6.32;;;3.60;;
20365;SDS011;10341;49.894;8.822;2022-11-15T05:21:02;5.13;;;3.42;;
20365;SDS011;10341;49.894;8.822;2022-11-15T05:26:41;5.13;;;3.08;;
20365;SDS011;10341;49.894;8.822;2022-11-15T05:32:19;4.88;;;3.30;;
20365;SDS011;10341;49.894;8.822;2022-11-15T05:37:58;7.80;;;4.38;;
20365;SDS011;10341;49.894;8.822;2022-11-15T05:43:36;5.88;;;3.50;;
20365;SDS011;10341;49.894;8.822;2022-11-15T05:49:18;5.53;;;3.63;;
20365;SDS011;10341;49.894;8.822;2022-11-15T05:54:59;6.32;;;3.70;;
20365;SDS011;10341;49.894;8.822;2022-11-15T06:00:39;4.55;;;3.10;;
20365;SDS011;10341;49.894;8.822;2022-11-15T06:06:17;6.15;;;3.78;;
20365;SDS011;10341;49.894;8.822;2022-11-15T06:11:55;5.43;;;3.60;;
20365;SDS011;10341;49.894;8.822;2022-11-15T06:17:33;5.85;;;4.20;;
20365;SDS011;10341;49.894;8.822;2022-11-15T06:23:11;10.10;;;6.13;;
20365;SDS011;10341;49.894;8.822;2022-11-15T06:28:50;6.18;;;4.28;;
20365;SDS011;10341;49.894;8.822;2022-11-15T06:34:28;6.90;;;4.28;;
20365;SDS011;10341;49.894;8.822;2022-11-15T06:40:07;5.43;;;3.42;;
20365;SDS011;10341;49.894;8.822;2022-11-15T06:45:47;6.13;;;4.13;;
20365;SDS011;10341;49.894;8.822;2022-11-15T06:51:25;18.65;;;10.10;;
20365;SDS011;10341;49.894;8.822;2022-11-15T06:57:06;7.68;;;5.10;;
20365;SDS011;10341;49.894;8.822;2022-11-15T07:08:22;7.32;;;4.40;;
20365;SDS011;10341;49.894;8.822;2022-11-15T07:14:03;5.65;;;3.67;;
20365;SDS011;10341;49.894;8.822;2022-11-15T07:19:41;5.97;;;3.22;;
20365;SDS011;10341;49.894;8.822;2022-11-15T07:25:19;3.90;;;3.03;;
20365;SDS011;10341;49.894;8.822;2022-11-15T07:30:57;3.65;;;2.63;;
20365;SDS011;10341;49.894;8.822;2022-11-15T07:36:35;5.57;;;2.90;;
20365;SDS011;10341;49.894;8.822;2022-11-15T07:42:13;4.30;;;2.60;;
20365;SDS011;10341;49.894;8.822;2022-11-15T07:48:10;4.40;;;3.47;;
20365;SDS011;10341;49.894;8.822;2022-11-15T07:53:48;4.88;;;3.22;;
20365;SDS011;10341;49.894;8.822;2022-11-15T07:59:26;7.53;;;4.15;;
20365;SDS011;10341;49.894;8.822;2022-11-15T08:05:04;8.50;;;4.57;;
20365;SDS011;10341;49.894;8.822;2022-11-15T08:10:43;9.52;;;4.70;;
20365;SDS011;10341;49.894;8.822;2022-11-15T08:16:21;6.95;;;3.72;;
20365;SDS011;10341;49.894;8.822;2022-11-15T08:21:58;4.85;;;3.05;;
20365;SDS011;10341;49.894;8.822;2022-11-15T08:27:36;4.95;;;3.20;;
20365;SDS011;10341;49.894;8.822;2022-11-15T08:33:14;7.95;;;4.88;;
20365;SDS011;10341;49.894;8.822;2022-11-15T08:38:52;5.45;;;3.42;;
20365;SDS011;10341;49.894;8.822;2022-11-15T08:44:30;5.28;;;3.55;;
20365;SDS011;10341;49.894;8.822;2022-11-15T08:50:08;8.95;;;3.47;;
20365;SDS011;10341;49.894;8.822;2022-11-15T08:55:47;5.63;;;3.30;;
20365;SDS011;10341;49.894;8.822;2022-11-15T09:01:25;4.15;;;3.15;;
20365;SDS011;10341;49.894;8.822;2022-11-15T09:07:03;5.45;;;3.67;;
20365;SDS011;10341;49.894;8.822;2022-11-15T09:12:41;4.72;;;2.90;;
20365;SDS011;10341;49.894;8.822;2022-11-15T09:18:19;5.90;;;3.45;;
20365;SDS011;10341;49.894;8.822;2022-11-15T09:23:59;4.57;;;3.17;;
20365;SDS011;10341;49.894;8.822;2022-11-15T09:29:37;4.53;;;3.20;;
20365;SDS011;10341;49.894;8.822;2022-11-15T09:35:16;8.93;;;3.72;;
20365;SDS011;10341;49.894;8.822;2022-11-15T09:41:05;5.32;;;3.28;;
20365;SDS011;10341;49.894;8.822;2022-11-15T09:47:05;5.25;;;3.72;;
20365;SDS011;10341;49.894;8.822;2022-11-15T09:53:22;3.95;;;2.92;;
20365;SDS011;10341;49.894;8.822;2022-11-15T10:04:36;4.95;;;3.30;;
20365;SDS011;10341;49.894;8.822;2022-11-15T10:09:59;3.42;;;2.65;;
20365;SDS011;10341;49.894;8.822;2022-11-15T10:15:32;5.88;;;3.28;;
20365;SDS011;10341;49.894;8.822;2022-11-15T10:26:15;5.78;;;3.95;;
20365;SDS011;10341;49.894;8.822;2022-11-15T10:31:37;5.25;;;3.20;;
20365;SDS011;10341;49.894;8.822;2022-11-15T10:37:00;4.18;;;3.40;;
20365;SDS011;10341;49.894;8.822;2022-11-15T10:42:27;6.15;;;3.65;;
20365;SDS011;10341;49.894;8.822;2022-11-15T10:47:47;5.05;;;3.22;;
20365;SDS011;10341;49.894;8.822;2022-11-15T10:53:12;5.38;;;3.08;;
20365;SDS011;10341;49.894;8.822;2022-11-15T10:58:49;4.78;;;3.10;;
20365;SDS011;10341;49.894;8.822;2022-11-15T11:04:11;6.22;;;3.17;;
20365;SDS011;10341;49.894;8.822;2022-11-15T11:09:33;10.68;;;5.88;;
20365;SDS011;10341;49.894;8.822;2022-11-15T11:14:54;5.20;;;3.67;;
20365;SDS011;10341;49.894;8.822;2022-11-15T11:31:23;2.53;;;1.85;;
20365;SDS011;10341;49.894;8.822;2022-11-15T11:42:31;2.03;;;1.30;;
20365;SDS011;10341;49.894;8.822;2022-11-15T11:48:12;1.60;;;1.20;;
20365;SDS011;10341;49.894;8.822;2022-11-15T11:53:41;2.10;;;1.33;;
20365;SDS011;10341;49.894;8.822;2022-11-15T11:59:25;1.80;;;1.27;;
20365;SDS011;10341;49.894;8.822;2022-11-15T12:10:23;2.78;;;1.10;;
20365;SDS011;10341;49.894;8.822;2022-11-15T12:15:55;2.00;;;1.20;;
20365;SDS011;10341;49.894;8.822;2022-11-15T12:27:05;2.63;;;1.58;;
20365;SDS011;10341;49.894;8.822;2022-11-15T12:32:35;1.40;;;1.20;;
20365;SDS011;10341;49.894;8.822;2022-11-15T12:37:56;2.10;;;1.30;;
20365;SDS011;10341;49.894;8.822;2022-11-15T12:53:55;2.07;;;1.63;;
20365;SDS011;10341;49.894;8.822;2022-11-15T12:59:38;2.53;;;1.40;;
20365;SDS011;10341;49.894;8.822;2022-11-15T13:10:33;3.53;;;1.30;;
20365;SDS011;10341;49.894;8.822;2022-11-15T13:15:54;2.90;;;1.50;;
20365;SDS011;10341;49.894;8.822;2022-11-15T13:21:18;1.23;;;1.08;;
20365;SDS011;10341;49.894;8.822;2022-11-15T13:27:01;1.20;;;0.90;;
20365;SDS011;10341;49.894;8.822;2022-11-15T13:32:20;2.97;;;1.40;;
20365;SDS011;10341;49.894;8.822;2022-11-15T13:37:40;2.92;;;1.50;;
20365;SDS011;10341;49.894;8.822;2022-11-15T13:43:12;1.65;;;1.40;;
20365;SDS011;10341;49.894;8.822;2022-11-15T13:48:53;3.60;;;1.40;;
20365;SDS011;10341;49.894;8.822;2022-11-15T14:00:01;1.40;;;1.17;;
20365;SDS011;10341;49.894;8.822;2022-11-15T14:05:30;2.55;;;1.70;;
20365;SDS011;10341;49.894;8.822;2022-11-15T14:11:05;1.58;;;1.30;;
20365;SDS011;10341;49.894;8.822;2022-11-15T14:16:39;2.53;;;1.52;;
20365;SDS011;10341;49.894;8.822;2022-11-15T14:22:10;2.05;;;1.48;;
20365;SDS011;10341;49.894;8.822;2022-11-15T14:27:30;2.20;;;1.58;;
20365;SDS011;10341;49.894;8.822;2022-11-15T14:32:50;1.58;;;1.10;;
20365;SDS011;10341;49.894;8.822;2022-11-15T14:38:09;2.63;;;1.40;;
20365;SDS011;10341;49.894;8.822;2022-11-15T14:43:28;2.70;;;1.58;;
20365;SDS011;10341;49.894;8.822;2022-11-15T14:48:47;3.25;;;1.73;;
20365;SDS011;10341;49.894;8.822;2022-11-15T14:54:09;8.73;;;2.53;;
20365;SDS011;10341;49.894;8.822;2022-11-15T14:59:29;3.88;;;2.00;;
20365;SDS011;10341;49.894;8.822;2022-11-15T15:04:48;3.55;;;2.03;;
20365;SDS011;10341;49.894;8.822;2022-11-15T15:10:08;4.65;;;2.75;;
20365;SDS011;10341;49.894;8.822;2022-11-15T15:15:31;5.32;;;3.08;;
20365;SDS011;10341;49.894;8.822;2022-11-15T15:20:56;5.97;;;3.70;;
20365;SDS011;10341;49.894;8.822;2022-11-15T15:26:21;10.13;;;4.75;;
20365;SDS011;10341;49.894;8.822;2022-11-15T15:31:41;4.88;;;3.35;;
20365;SDS011;10341;49.894;8.822;2022-11-15T15:42:43;4.05;;;2.67;;
20365;SDS011;10341;49.894;8.822;2022-11-15T15:48:02;3.63;;;2.47;;
20365;SDS011;10341;49.894;8.822;2022-11-15T15:53:22;3.58;;;3.13;;
20365;SDS011;10341;49.894;8.822;2022-11-15T15:58:42;4.30;;;2.60;;
20365;SDS011;10341;49.894;8.822;2022-11-15T16:04:01;8.00;;;2.87;;
20365;SDS011;10341;49.894;8.822;2022-11-15T16:09:21;3.17;;;2.50;;
20365;SDS011;10341;49.894;8.822;2022-11-15T16:15:01;4.60;;;2.53;;
20365;SDS011;10341;49.894;8.822;2022-11-15T16:25:55;4.53;;;2.30;;
20365;SDS011;10341;49.894;8.822;2022-11-15T16:31:14;8.18;;;4.88;;
20365;SDS011;10341;49.894;8.822;2022-11-15T16:36:36;6.97;;;3.60;;
20365;SDS011;10341;49.894;8.822;2022-11-15T16:41:59;6.10;;;3.65;;
20365;SDS011;10341;49.894;8.822;2022-11-15T16:47:19;5.22;;;3.33;;
20365;SDS011;10341;49.894;8.822;2022-11-15T16:52:38;6.03;;;3.28;;
20365;SDS011;10341;49.894;8.822;2022-11-15T16:57:57;5.85;;;3.25;;
20365;SDS011;10341;49.894;8.822;2022-11-15T17:03:16;3.40;;;2.50;;
20365;SDS011;10341;49.894;8.822;2022-11-15T17:08:35;6.77;;;2.90;;
20365;SDS011;10341;49.894;8.822;2022-11-15T17:13:58;7.00;;;2.97;;
20365;SDS011;10341;49.894;8.822;2022-11-15T17:19:18;4.25;;;2.88;;
20365;SDS011;10341;49.894;8.822;2022-11-15T17:24:38;5.30;;;3.17;;
20365;SDS011;10341;49.894;8.822;2022-11-15T17:29:58;5.53;;;3.50;;
20365;SDS011;10341;49.894;8.822;2022-11-15T17:35:17;7.50;;;3.47;;
20365;SDS011;10341;49.894;8.822;2022-11-15T17:40:36;8.68;;;3.97;;
20365;SDS011;10341;49.894;8.822;2022-11-15T17:45:55;8.20;;;4.38;;
20365;SDS011;10341;49.894;8.822;2022-11-15T17:51:15;5.72;;;3.50;;
20365;SDS011;10341;49.894;8.822;2022-11-15T17:56:37;5.00;;;3.05;;
20365;SDS011;10341;49.894;8.822;2022-11-15T18:01:58;6.22;;;3.30;;
20365;SDS011;10341;49.894;8.822;2022-11-15T18:07:17;3.63;;;2.60;;
20365;SDS011;10341;49.894;8.822;2022-11-15T18:12:36;4.70;;;2.65;;
20365;SDS011;10341;49.894;8.822;2022-11-15T18:17:55;3.67;;;2.70;;
20365;SDS011;10341;49.894;8.822;2022-11-15T18:23:15;3.30;;;2.40;;
20365;SDS011;10341;49.894;8.822;2022-11-15T18:28:35;3.33;;;2.58;;
20365;SDS011;10341;49.894;8.822;2022-11-15T18:33:57;3.78;;;2.58;;
20365;SDS011;10341;49.894;8.822;2022-11-15T18:39:18;4.38;;;3.08;;
20365;SDS011;10341;49.894;8.822;2022-11-15T18:49:57;6.63;;;3.20;;
20365;SDS011;10341;49.894;8.822;2022-11-15T18:55:17;4.47;;;2.65;;
20365;SDS011;10341;49.894;8.822;2022-11-15T19:00:36;5.32;;;3.30;;
20365;SDS011;10341;49.894;8.822;2022-11-15T19:11:47;4.30;;;2.95;;
20365;SDS011;10341;49.894;8.822;2022-11-15T19:17:08;4.13;;;3.13;;
20365;SDS011;10341;49.894;8.822;2022-11-15T19:22:27;5.25;;;2.60;;
20365;SDS011;10341;49.894;8.822;2022-11-15T19:27:47;5.43;;;2.95;;
20365;SDS011;10341;49.894;8.822;2022-11-15T19:33:06;4.13;;;2.72;;
20365;SDS011;10341;49.894;8.822;2022-11-15T19:38:25;3.72;;;2.50;;
20365;SDS011;10341;49.894;8.822;2022-11-15T19:43:44;5.63;;;2.85;;
20365;SDS011;10341;49.894;8.822;2022-11-15T19:49:08;6.28;;;3.38;;
20365;SDS011;10341;49.894;8.822;2022-11-15T19:54:28;5.30;;;3.20;;
20365;SDS011;10341;49.894;8.822;2022-11-15T19:59:47;4.95;;;3.97;;
20365;SDS011;10341;49.894;8.822;2022-11-15T20:05:06;6.65;;;4.53;;
20365;SDS011;10341;49.894;8.822;2022-11-15T20:10:26;6.20;;;3.53;;
20365;SDS011;10341;49.894;8.822;2022-11-15T20:15:45;6.22;;;4.03;;
20365;SDS011;10341;49.894;8.822;2022-11-15T20:21:04;7.43;;;5.15;;
20365;SDS011;10341;49.894;8.822;2022-11-15T20:26:24;6.75;;;4.60;;
20365;SDS011;10341;49.894;8.822;2022-11-15T20:31:43;8.30;;;4.72;;
20365;SDS011;10341;49.894;8.822;2022-11-15T20:37:03;6.00;;;4.17;;
20365;SDS011;10341;49.894;8.822;2022-11-15T20:42:22;7.03;;;4.47;;
20365;SDS011;10341;49.894;8.822;2022-11-15T20:47:41;7.72;;;4.95;;
20365;SDS011;10341;49.894;8.822;2022-11-15T20:53:00;5.88;;;4.15;;
20365;SDS011;10341;49.894;8.822;2022-11-15T20:58:19;6.78;;;4.60;;
20365;SDS011;10341;49.894;8.822;2022-11-15T21:03:39;9.02;;;5.30;;
20365;SDS011;10341;49.894;8.822;2022-11-15T21:08:58;6.88;;;4.70;;
20365;SDS011;10341;49.894;8.822;2022-11-15T21:14:37;6.95;;;4.32;;
20365;SDS011;10341;49.894;8.822;2022-11-15T21:19:57;6.47;;;4.47;;
20365;SDS011;10341;49.894;8.822;2022-11-15T21:25:17;6.83;;;4.73;;
20365;SDS011;10341;49.894;8.822;2022-11-15T21:30:36;6.70;;;4.65;;
20365;SDS011;10341;49.894;8.822;2022-11-15T21:35:55;8.90;;;5.20;;
20365;SDS011;10341;49.894;8.822;2022-11-15T21:41:15;11.52;;;5.22;;
20365;SDS011;10341;49.894;8.822;2022-11-15T21:46:34;12.23;;;5.55;;
20365;SDS011;10341;49.894;8.822;2022-11-15T21:57:14;6.18;;;4.00;;
20365;SDS011;10341;49.894;8.822;2022-11-15T22:02:33;7.22;;;4.25;;
20365;SDS011;10341;49.894;8.822;2022-11-15T22:07:52;6.00;;;4.07;;
20365;SDS011;10341;49.894;8.822;2022-11-15T22:13:11;7.13;;;3.95;;
20365;SDS011;10341;49.894;8.822;2022-11-15T22:18:31;5.82;;;3.70;;
20365;SDS011;10341;49.894;8.822;2022-11-15T22:23:50;5.97;;;3.90;;
20365;SDS011;10341;49.894;8.822;2022-11-15T22:29:09;7.68;;;4.72;;
20365;SDS011;10341;49.894;8.822;2022-11-15T22:34:28;10.35;;;5.18;;
20365;SDS011;10341;49.894;8.822;2022-11-15T22:39:47;8.18;;;5.00;;
20365;SDS011;10341;49.894;8.822;2022-11-15T22:45:07;7.53;;;5.10;;
20365;SDS011;10341;49.894;8.822;2022-11-15T22:50:26;6.97;;;5.03;;
20365;SDS011;10341;49.894;8.822;2022-11-15T22:55:49;9.68;;;5.43;;
20365;SDS011;10341;49.894;8.822;2022-11-15T23:01:13;8.23;;;5.32;;
20365;SDS011;10341;49.894;8.822;2022-11-15T23:06:38;8.00;;;5.45;;
20365;SDS011;10341;49.894;8.822;2022-11-15T23:11:57;7.28;;;5.30;;
20365;SDS011;10341;49.894;8.822;2022-11-15T23:17:35;9.57;;;6.38;;
20365;SDS011;10341;49.894;8.822;2022-11-15T23:22:54;7.80;;;5.70;;
20365;SDS011;10341;49.894;8.822;2022-11-15T23:28:13;10.95;;;7.30;;
20365;SDS011;10341;49.894;8.822;2022-11-15T23:33:33;9.98;;;6.20;;
20365;SDS011;10341;49.894;8.822;2022-11-15T23:39:11;10.30;;;6.47;;
20365;SDS011;10341;49.894;8.822;2022-11-15T23:44:30;10.48;;;6.43;;
20365;SDS011;10341;49.894;8.822;2022-11-15T23:49:50;10.17;;;6.43;;
20365;SDS011;10341;49.894;8.822;2022-11-15T23:55:09;11.20;;;5.47;;
